Time;durP1;ratioP1;P1;durP2;ratioP2;P2;SDS_P1;SDS_P2;PMS_P1;PMS_P2;Temp;Humidity;BMP_temperature;BMP_pressure;BME280_temperature;BME280_humidity;BME280_pressure;Samples;Min_cycle;Max_cycle;Signal;HPM_P1;HPM_P2
2022/09/15 00:00:27;;;;;;;0.73;0.60;;;;;;;19.13;80.56;97799.41;4878866;29;20045;-68
2022/09/15 00:02:54;;;;;;;1.30;0.70;;;;;;;19.11;80.34;97797.03;4878650;29;20056;-68
2022/09/15 00:05:20;;;;;;;0.82;0.80;;;;;;;19.09;80.46;97795.69;4874399;29;20056;-70
2022/09/15 00:07:47;;;;;;;1.45;0.85;;;;;;;19.06;80.55;97799.69;4882217;29;20045;-69
2022/09/15 00:10:13;;;;;;;2.20;1.00;;;;;;;19.05;80.78;97798.09;4879638;29;20055;-70
2022/09/15 00:12:40;;;;;;;2.58;1.00;;;;;;;19.04;80.94;97799.19;4879524;29;20041;-70
2022/09/15 00:15:11;;;;;;;1.73;0.93;;;;;;;19.02;80.95;97795.97;4878734;29;20052;-70
2022/09/15 00:17:37;;;;;;;1.25;1.10;;;;;;;18.98;80.61;97798.41;4882548;29;20052;-69
2022/09/15 00:20:06;;;;;;;1.40;0.90;;;;;;;18.96;81.12;97794.38;4882810;29;20049;-70
2022/09/15 00:22:32;;;;;;;1.20;1.00;;;;;;;18.94;81.38;97794.66;4883344;29;20053;-70
2022/09/15 00:24:59;;;;;;;1.40;1.17;;;;;;;18.93;81.20;97789.56;4884991;29;20044;-69
2022/09/15 00:27:25;;;;;;;3.22;1.05;;;;;;;18.91;81.46;97789.84;4884378;29;20049;-69
2022/09/15 00:29:52;;;;;;;2.08;1.38;;;;;;;18.89;81.60;97789.28;4889540;29;20049;-69
2022/09/15 00:32:18;;;;;;;1.17;1.08;;;;;;;18.90;81.69;97790.09;4887226;29;20048;-69
2022/09/15 00:34:45;;;;;;;1.98;1.10;;;;;;;18.88;81.23;97782.34;4878597;29;20052;-70
2022/09/15 00:37:12;;;;;;;1.33;1.00;;;;;;;18.87;81.66;97778.06;4886022;29;20052;-70
2022/09/15 00:39:38;;;;;;;1.30;1.20;;;;;;;18.86;81.44;97768.44;4883881;29;20053;-70
2022/09/15 00:42:05;;;;;;;1.95;1.27;;;;;;;18.86;81.74;97772.97;4868378;29;20060;-70
2022/09/15 00:44:34;;;;;;;1.75;1.20;;;;;;;18.86;81.64;97773.78;4884539;29;20100;-70
2022/09/15 00:47:04;;;;;;;1.10;1.00;;;;;;;18.87;81.88;97770.03;4882263;29;20060;-70
2022/09/15 00:49:46;;;;;;;;;;;;;;;18.87;81.72;97771.91;4882728;29;20124;-70
2022/09/15 00:52:24;;;;;;;1.13;1.02;;;;;;;18.86;82.08;97776.47;4883546;29;19972;-69
2022/09/15 00:55:00;;;;;;;1.13;0.90;;;;;;;18.88;82.07;97778.88;4883414;29;20048;-70
2022/09/15 00:57:33;;;;;;;1.40;1.00;;;;;;;18.90;81.92;97779.38;4866326;29;20053;-69
2022/09/15 01:00:03;;;;;;;2.08;1.27;;;;;;;18.90;81.81;97782.88;4877932;29;20052;-69
2022/09/15 01:02:34;;;;;;;1.17;1.08;;;;;;;18.92;81.95;97782.59;4877900;29;20045;-69
2022/09/15 01:05:04;;;;;;;0.90;0.90;;;;;;;18.91;81.90;97787.16;4870196;29;20085;-70
2022/09/15 01:07:38;;;;;;;2.25;1.42;;;;;;;18.89;82.04;97778.59;4878618;29;20071;-70
2022/09/15 01:10:10;;;;;;;2.45;1.38;;;;;;;18.89;81.60;97781.25;4878786;29;20041;-70
2022/09/15 01:12:39;;;;;;;1.60;1.50;;;;;;;18.87;82.00;97782.63;4877438;29;20045;-70
2022/09/15 01:15:06;;;;;;;1.30;1.20;;;;;;;18.85;81.76;97780.19;4877374;29;20117;-70
2022/09/15 01:18:02;;;;;;;1.20;1.20;;;;;;;18.85;81.88;97784.75;4878259;29;20041;-70
2022/09/15 01:20:37;;;;;;;1.38;1.20;;;;;;;18.83;81.69;97784.25;4861753;29;20101;-70
2022/09/15 01:23:36;;;;;;;2.50;1.65;;;;;;;18.80;81.99;97788.25;4862041;29;20055;-70
2022/09/15 01:26:12;;;;;;;2.03;1.63;;;;;;;18.76;82.04;97779.16;4877137;29;20053;-71
2022/09/15 01:29:23;;;;;;;1.92;1.55;;;;;;;18.74;82.22;97782.09;4877163;29;20129;-70
2022/09/15 01:35:30;;;;;;;1.77;1.67;;;;;;;18.73;82.20;97791.19;4870523;29;20375;-70
2022/09/15 01:38:01;;;;;;;1.85;1.75;;;;;;;18.74;82.17;97787.47;4877066;29;20474;-70
2022/09/15 01:40:34;;;;;;;2.05;1.50;;;;;;;18.74;82.38;97786.66;4877091;29;20080;-70
2022/09/15 01:43:04;;;;;;;1.70;1.60;;;;;;;18.73;82.47;97791.19;4877064;29;20049;-70
2022/09/15 01:45:32;;;;;;;1.80;1.70;;;;;;;18.72;82.39;97781.56;4877005;29;20057;-70
2022/09/15 01:48:02;;;;;;;2.70;1.77;;;;;;;18.73;82.60;97779.69;4876785;29;20113;-70
2022/09/15 01:50:37;;;;;;;3.35;1.88;;;;;;;18.73;82.60;97783.16;4876754;29;20417;-70
2022/09/15 01:53:12;;;;;;;1.77;1.67;;;;;;;18.75;82.51;97780.22;4876714;29;20056;-70
2022/09/15 01:55:43;;;;;;;1.75;1.65;;;;;;;18.76;82.80;97777.28;4877076;29;20119;-70
2022/09/15 01:58:10;;;;;;;1.55;1.30;;;;;;;18.78;82.80;97777.81;4876583;29;20057;-70
2022/09/15 02:00:42;;;;;;;2.25;1.30;;;;;;;18.83;82.78;97781.56;4877450;29;20045;-70
2022/09/15 02:03:43;;;;;;;1.40;1.30;;;;;;;18.84;82.47;97783.97;4876961;29;20105;-70
2022/09/15 02:06:17;;;;;;;2.83;1.50;;;;;;;18.86;82.45;97781.00;4861299;29;20106;-70
2022/09/15 02:09:09;;;;;;;1.67;1.40;;;;;;;18.85;82.74;97774.84;4846457;29;20061;-70
2022/09/15 02:11:44;;;;;;;1.40;1.30;;;;;;;18.88;82.43;97776.19;4861988;29;20053;-70
2022/09/15 02:14:20;;;;;;;1.60;1.50;;;;;;;18.88;82.46;97785.00;4862942;29;20045;-70
2022/09/15 02:16:51;;;;;;;1.40;1.30;;;;;;;18.90;82.73;97774.84;4846211;29;20045;-70
2022/09/15 02:19:40;;;;;;;2.00;1.90;;;;;;;18.92;82.44;97772.69;4862556;29;20136;-70
2022/09/15 02:22:16;;;;;;;1.52;1.42;;;;;;;18.92;82.26;97774.56;4861599;29;20464;-70
2022/09/15 02:24:55;;;;;;;1.70;1.30;;;;;;;18.94;82.74;97775.91;4861524;29;20628;-70
2022/09/15 02:27:26;;;;;;;1.95;1.85;;;;;;;18.95;82.41;97774.03;4861284;29;20049;-70
2022/09/15 02:29:58;;;;;;;1.63;1.50;;;;;;;18.96;82.42;97775.63;4846139;29;20106;-70
2022/09/15 02:32:27;;;;;;;1.45;1.35;;;;;;;18.98;82.15;97768.13;4867803;29;20045;-70
2022/09/15 02:34:57;;;;;;;1.73;1.63;;;;;;;18.99;82.13;97772.41;4871983;29;20060;-70
2022/09/15 02:37:25;;;;;;;1.77;1.67;;;;;;;18.99;82.18;97775.09;4879674;29;20112;-70
2022/09/15 02:39:57;;;;;;;1.98;1.73;;;;;;;19.00;81.85;97774.81;4879736;29;20060;-70
2022/09/15 02:42:30;;;;;;;1.92;1.83;;;;;;;19.01;82.06;97770.25;4879965;29;20052;-70
2022/09/15 02:44:59;;;;;;;1.90;1.70;;;;;;;19.00;82.26;97771.34;4879803;29;20105;-70
2022/09/15 02:47:30;;;;;;;1.85;1.70;;;;;;;18.99;81.96;97775.91;4879620;29;20394;-70
2022/09/15 02:49:57;;;;;;;2.08;1.85;;;;;;;18.98;82.16;97770.78;4879503;29;20057;-71
2022/09/15 02:52:25;;;;;;;2.85;1.77;;;;;;;19.01;82.14;97770.25;4879482;29;20498;-70
2022/09/15 02:54:52;;;;;;;2.20;2.10;;;;;;;19.01;82.28;97773.72;4879637;29;20415;-70
2022/09/15 02:57:19;;;;;;;1.90;1.70;;;;;;;19.02;81.93;97772.69;4880780;29;20586;-70
2022/09/15 03:02:32;;;;;;;1.90;1.80;;;;;;;19.04;82.04;97783.91;4880816;29;20055;-70
2022/09/15 03:04:59;;;;;;;1.67;1.58;;;;;;;19.03;81.83;97785.00;4871720;29;20052;-70
2022/09/15 03:07:27;;;;;;;2.30;2.10;;;;;;;19.05;81.83;97787.38;4879237;29;20049;-70
2022/09/15 03:09:53;;;;;;;1.77;1.38;;;;;;;19.07;82.02;97789.81;4880690;29;20413;-70
2022/09/15 03:12:20;;;;;;;1.90;1.80;;;;;;;19.06;81.81;97778.28;4863623;29;20101;-70
2022/09/15 03:14:47;;;;;;;1.48;1.38;;;;;;;19.08;82.01;97788.72;4879385;29;20065;-70
2022/09/15 03:17:14;;;;;;;2.30;2.10;;;;;;;19.09;81.83;97793.81;4879115;29;20041;-70
2022/09/15 03:19:40;;;;;;;1.92;1.83;;;;;;;19.09;81.82;97793.00;4879077;29;20061;-70
2022/09/15 03:22:08;;;;;;;2.00;1.90;;;;;;;19.11;81.94;97796.22;4879326;29;20049;-70
2022/09/15 03:24:36;;;;;;;1.48;1.38;;;;;;;19.12;82.07;97793.25;4879458;29;20139;-70
2022/09/15 03:27:03;;;;;;;1.70;1.60;;;;;;;19.15;81.89;97797.28;4879000;29;20056;-70
2022/09/15 03:29:29;;;;;;;2.20;2.10;;;;;;;19.15;81.65;97798.09;4879392;29;20049;-70
2022/09/15 03:31:56;;;;;;;2.20;2.00;;;;;;;19.14;81.66;97799.13;4878908;29;20053;-70
2022/09/15 03:34:23;;;;;;;3.55;2.35;;;;;;;19.14;81.71;97796.47;4871466;29;20123;-69
2022/09/15 03:36:49;;;;;;;2.05;1.85;;;;;;;19.16;81.68;97796.22;4878874;29;20409;-69
2022/09/15 03:39:16;;;;;;;2.30;2.08;;;;;;;19.16;81.68;97799.69;4878707;29;20692;-69
2022/09/15 03:41:42;;;;;;;2.17;1.90;;;;;;;19.16;81.71;97799.69;4879919;29;20093;-69
2022/09/15 03:44:09;;;;;;;1.70;1.60;;;;;;;19.18;81.72;97799.41;4878743;29;20078;-70
2022/09/15 03:46:35;;;;;;;2.38;2.03;;;;;;;19.18;81.59;97799.41;4878452;29;20064;-70
2022/09/15 03:49:02;;;;;;;2.42;2.22;;;;;;;19.16;81.41;97801.56;4878615;29;20045;-70
2022/09/15 03:51:28;;;;;;;3.10;2.80;;;;;;;19.12;81.08;97795.16;4878765;29;20501;-70
2022/09/15 03:53:55;;;;;;;2.20;2.05;;;;;;;19.08;81.46;97792.22;4879605;29;20056;-70
2022/09/15 03:56:25;;;;;;;3.42;2.20;;;;;;;19.05;81.22;97795.41;4879577;29;20049;-70
2022/09/15 03:58:52;;;;;;;1.88;1.77;;;;;;;19.04;81.57;97794.63;4878330;29;20053;-70
2022/09/15 04:01:19;;;;;;;2.17;1.98;;;;;;;19.04;81.57;97794.63;5288352;23;20356;-68
2022/09/15 04:03:47;;;;;;;1.90;1.80;;;;;;;19.03;81.77;97786.88;4878210;29;20104;-69
2022/09/15 04:06:18;;;;;;;1.75;1.63;;;;;;;19.01;81.55;97792.47;4878247;29;20128;-70
2022/09/15 04:08:44;;;;;;;1.88;1.70;;;;;;;19.02;81.66;97787.91;4878245;29;20505;-69
2022/09/15 04:11:12;;;;;;;1.60;1.50;;;;;;;19.03;81.76;97786.88;4862741;29;20069;-70
2022/09/15 04:13:42;;;;;;;1.95;1.77;;;;;;;19.01;81.70;97786.31;4878562;29;20048;-71
2022/09/15 04:16:12;;;;;;;1.75;1.65;;;;;;;18.99;81.69;97791.16;4878391;29;20060;-70
2022/09/15 04:18:39;;;;;;;2.97;1.50;;;;;;;18.98;81.78;97787.69;4878011;29;20057;-70
2022/09/15 04:21:07;;;;;;;1.70;1.60;;;;;;;18.97;81.53;97785.25;4878267;29;20053;-70
2022/09/15 04:23:35;;;;;;;1.60;1.50;;;;;;;18.97;81.66;97796.78;4877493;29;20166;-69
2022/09/15 04:26:05;;;;;;;2.20;1.77;;;;;;;18.98;81.80;97786.84;4879269;29;20525;-69
2022/09/15 04:28:35;;;;;;;2.38;2.17;;;;;;;18.97;81.57;97790.63;4862464;29;20418;-69
2022/09/15 04:31:13;;;;;;;2.20;2.03;;;;;;;18.95;81.26;97787.44;4879068;29;20395;-68
2022/09/15 04:33:41;;;;;;;1.90;1.80;;;;;;;18.95;81.68;97792.78;4885182;29;20053;-69
2022/09/15 04:36:11;;;;;;;2.58;2.25;;;;;;;18.96;81.74;97789.03;4859085;29;20061;-69
2022/09/15 04:38:38;;;;;;;1.95;1.85;;;;;;;18.97;81.88;97785.25;4859495;29;20435;-70
2022/09/15 04:41:05;;;;;;;2.50;2.30;;;;;;;18.95;81.52;97790.91;4859200;29;20053;-70
2022/09/15 04:43:32;;;;;;;3.10;2.25;;;;;;;18.95;81.79;97790.09;4860323;29;20064;-69
2022/09/15 04:45:59;;;;;;;1.92;1.83;;;;;;;18.97;81.74;97801.34;4860263;29;20053;-69
2022/09/15 04:48:26;;;;;;;2.33;2.20;;;;;;;18.96;81.35;97811.25;4843609;29;20510;-69
2022/09/15 04:50:53;;;;;;;1.58;1.42;;;;;;;18.81;80.42;97812.06;4859045;29;20053;-69
2022/09/15 04:53:20;;;;;;;1.30;1.20;;;;;;;18.60;79.75;97818.47;4860045;29;20483;-69
2022/09/15 04:55:47;;;;;;;1.63;1.10;;;;;;;18.32;79.83;97809.09;4859030;29;20549;-69
2022/09/15 04:58:13;;;;;;;1.13;0.90;;;;;;;18.15;80.28;97811.22;4860163;29;20041;-69
2022/09/15 05:00:44;;;;;;;1.02;0.93;;;;;;;18.02;79.92;97826.72;4859099;29;20049;-69
2022/09/15 05:03:12;;;;;;;1.05;1.02;;;;;;;17.89;80.38;97824.56;4874830;29;20382;-69
2022/09/15 05:05:40;;;;;;;2.38;1.08;;;;;;;17.79;80.08;97837.88;4881166;29;20092;-70
2022/09/15 05:08:07;;;;;;;0.90;0.90;;;;;;;17.71;80.02;97838.34;4878388;29;20049;-69
2022/09/15 05:10:33;;;;;;;2.08;1.20;;;;;;;17.61;80.30;97839.13;4877565;29;20057;-69
2022/09/15 05:13:00;;;;;;;0.90;0.90;;;;;;;17.52;80.02;97848.72;4877167;29;20057;-69
2022/09/15 05:15:27;;;;;;;1.10;1.00;;;;;;;17.39;80.05;97859.84;4877399;29;20087;-69
2022/09/15 05:17:53;;;;;;;1.58;1.48;;;;;;;17.26;79.67;97858.47;4861415;29;20056;-69
2022/09/15 05:20:20;;;;;;;1.60;1.50;;;;;;;17.07;79.18;97866.91;4877203;29;20574;-69
2022/09/15 05:22:46;;;;;;;2.63;2.42;;;;;;;16.89;78.65;97874.50;4876903;29;20506;-69
2022/09/15 05:25:13;;;;;;;3.03;2.72;;;;;;;16.68;78.52;97874.31;4861852;29;20044;-69
2022/09/15 05:27:40;;;;;;;3.65;3.35;;;;;;;16.52;78.49;97881.38;4878307;29;20120;-69
2022/09/15 05:30:07;;;;;;;3.60;3.30;;;;;;;16.44;78.71;97895.16;4878393;29;20435;-70
2022/09/15 05:32:53;;;;;;;3.75;3.45;;;;;;;16.33;78.27;97904.94;4884403;29;20509;-70
2022/09/15 05:35:20;;;;;;;3.40;3.10;;;;;;;16.25;78.87;97907.28;4892286;29;20041;-70
2022/09/15 05:37:46;;;;;;;3.60;3.30;;;;;;;16.23;78.72;97910.16;4899487;29;20074;-69
2022/09/15 05:40:14;;;;;;;3.08;2.80;;;;;;;16.23;79.35;97917.38;4900908;29;20493;-69
2022/09/15 05:42:40;;;;;;;3.67;3.38;;;;;;;16.25;78.80;97924.06;4900729;29;20109;-69
2022/09/15 05:45:07;;;;;;;3.10;2.90;;;;;;;16.26;78.90;97925.69;4899682;29;20088;-69
2022/09/15 05:47:34;;;;;;;4.10;3.70;;;;;;;16.27;79.00;97923.81;4883604;29;20062;-69
2022/09/15 05:50:00;;;;;;;5.55;4.90;;;;;;;16.23;78.61;97934.16;4899485;29;20045;-69
2022/09/15 05:52:27;;;;;;;5.45;4.95;;;;;;;16.20;78.39;97948.00;4899226;29;20052;-69
2022/09/15 05:54:53;;;;;;;4.40;4.00;;;;;;;16.21;78.48;97951.50;4899444;29;20108;-70
2022/09/15 05:57:24;;;;;;;3.60;3.30;;;;;;;16.24;78.86;97946.44;4899214;29;20087;-70
2022/09/15 05:59:51;;;;;;;3.70;3.40;;;;;;;16.29;78.89;97964.38;4899303;29;20056;-69
2022/09/15 06:02:17;;;;;;;3.10;2.80;;;;;;;16.35;78.72;97955.38;4883101;29;20092;-69
2022/09/15 06:04:44;;;;;;;3.28;2.97;;;;;;;16.38;78.43;97968.22;4875886;29;20144;-70
2022/09/15 06:07:11;;;;;;;2.60;2.40;;;;;;;16.38;78.53;97962.88;4899199;29;20525;-70
2022/09/15 06:09:38;;;;;;;2.60;2.40;;;;;;;16.42;78.72;97964.00;4900458;29;20044;-70
2022/09/15 06:12:04;;;;;;;2.20;2.00;;;;;;;16.45;78.29;97968.00;4899174;29;20052;-70
2022/09/15 06:14:31;;;;;;;2.00;1.63;;;;;;;16.48;78.57;97968.31;4900192;29;20495;-70
2022/09/15 06:16:57;;;;;;;3.00;2.80;;;;;;;16.53;77.79;97973.72;4899800;29;20382;-70
2022/09/15 06:19:24;;;;;;;4.05;3.53;;;;;;;16.52;77.74;97969.41;4899266;29;20037;-70
2022/09/15 06:21:51;;;;;;;3.88;3.17;;;;;;;16.55;78.08;97979.59;4899023;29;20053;-70
2022/09/15 06:24:17;;;;;;;2.53;2.33;;;;;;;16.60;77.60;97979.63;4899180;29;20052;-70
2022/09/15 06:26:44;;;;;;;2.60;2.40;;;;;;;16.62;76.87;97982.06;4882965;29;20044;-70
2022/09/15 06:29:10;;;;;;;1.98;1.88;;;;;;;16.69;77.47;97981.84;4899920;29;20100;-70
2022/09/15 06:31:37;;;;;;;2.28;2.00;;;;;;;16.73;77.48;97989.13;4900083;29;20048;-70
2022/09/15 06:34:04;;;;;;;1.92;1.83;;;;;;;16.78;77.04;97991.88;4875236;29;20152;-70
2022/09/15 06:36:31;;;;;;;1.52;1.42;;;;;;;16.84;76.89;97987.38;4898523;29;20049;-70
2022/09/15 06:38:58;;;;;;;1.30;1.20;;;;;;;16.91;77.00;97996.00;4898927;29;20052;-70
2022/09/15 06:41:27;;;;;;;1.50;1.40;;;;;;;16.98;76.99;97982.41;4883135;29;20058;-70
2022/09/15 06:44:17;;;;;;;1.48;1.38;;;;;;;17.04;76.60;97992.91;4898855;29;20041;-70
2022/09/15 06:46:44;;;;;;;1.33;1.23;;;;;;;17.07;76.13;97988.94;4882198;29;20104;-70
2022/09/15 06:49:11;;;;;;;2.05;1.42;;;;;;;17.08;76.29;97990.53;4882708;29;20040;-70
2022/09/15 06:51:37;;;;;;;2.13;1.50;;;;;;;17.11;75.96;98005.25;4882764;29;20116;-70
2022/09/15 06:54:05;;;;;;;1.92;1.70;;;;;;;17.11;75.96;98005.25;4898470;29;20478;-70
2022/09/15 06:56:32;;;;;;;1.88;1.77;;;;;;;17.11;75.96;98013.25;4898321;29;20040;-69
2022/09/15 06:59:03;;;;;;;2.60;2.40;;;;;;;17.14;75.67;98015.41;4898412;29;20053;-69
2022/09/15 07:01:31;;;;;;;3.65;2.95;;;;;;;17.17;76.17;98009.56;4898361;29;20052;-69
2022/09/15 07:04:00;;;;;;;2.70;2.50;;;;;;;17.21;76.20;98006.13;4891180;29;20442;-69
2022/09/15 07:06:28;;;;;;;2.17;1.98;;;;;;;17.25;76.10;98009.09;4898102;29;20055;-70
2022/09/15 07:08:55;;;;;;;1.92;1.80;;;;;;;17.31;75.93;98010.75;4882577;29;20049;-70
2022/09/15 07:11:22;;;;;;;1.55;1.45;;;;;;;17.34;75.69;98007.56;4898116;29;20049;-70
2022/09/15 07:13:49;;;;;;;1.10;1.10;;;;;;;17.37;75.70;98015.06;4882473;29;20052;-70
2022/09/15 07:16:17;;;;;;;1.48;1.38;;;;;;;17.42;75.36;98015.09;4897829;29;20052;-70
2022/09/15 07:18:45;;;;;;;3.78;3.00;;;;;;;17.49;75.19;98004.19;4897830;29;20079;-70
2022/09/15 07:21:18;;;;;;;6.03;5.40;;;;;;;17.49;73.86;98009.56;4897703;29;20116;-70
2022/09/15 07:23:46;;;;;;;5.78;4.88;;;;;;;17.43;73.73;98014.06;4898001;29;20044;-70
2022/09/15 07:26:24;;;;;;;5.95;5.35;;;;;;;17.34;73.05;98019.03;4882316;29;20052;-70
2022/09/15 07:28:54;;;;;;;7.22;6.00;;;;;;;17.32;73.11;98009.69;4899082;29;20048;-70
2022/09/15 07:31:24;;;;;;;6.35;5.68;;;;;;;17.29;72.99;98007.53;4882444;29;20078;-70
2022/09/15 07:33:50;;;;;;;5.75;4.53;;;;;;;17.29;73.34;98020.88;4873714;29;20075;-70
2022/09/15 07:36:18;;;;;;;4.20;3.65;;;;;;;17.36;73.70;98028.69;4898628;29;20408;-70
2022/09/15 07:38:46;;;;;;;5.63;4.95;;;;;;;17.36;72.47;98034.03;4898757;29;20485;-70
2022/09/15 07:41:19;;;;;;;5.50;4.15;;;;;;;17.35;72.17;98033.22;4898606;29;20465;-69
2022/09/15 07:43:48;;;;;;;5.00;4.50;;;;;;;17.41;72.06;98031.41;4882102;29;20053;-69
2022/09/15 07:46:16;;;;;;;5.80;4.90;;;;;;;17.50;72.26;98022.63;4897063;29;20059;-70
2022/09/15 07:48:47;;;;;;;6.68;4.90;;;;;;;17.55;72.03;98036.06;4898422;29;20108;-69
2022/09/15 07:51:14;;;;;;;5.90;5.30;;;;;;;17.60;71.80;98037.97;4897406;29;20581;-69
2022/09/15 07:53:42;;;;;;;5.35;4.80;;;;;;;17.61;71.52;98042.25;4897409;29;20124;-69
2022/09/15 07:56:09;;;;;;;4.93;4.30;;;;;;;17.64;71.24;98046.28;4898222;29;20040;-69
2022/09/15 07:58:35;;;;;;;6.82;4.50;;;;;;;17.70;71.64;98040.69;4896976;29;20573;-70
2022/09/15 08:01:04;;;;;;;4.97;4.47;;;;;;;17.76;71.10;98041.59;4897202;29;20051;-70
2022/09/15 08:03:31;;;;;;;5.47;4.35;;;;;;;17.75;71.24;98048.78;4890253;29;20048;-70
2022/09/15 08:06:02;;;;;;;3.60;3.30;;;;;;;17.80;71.55;98051.50;4895838;29;20040;-70
2022/09/15 08:08:29;;;;;;;3.97;3.65;;;;;;;17.88;71.14;98042.19;4896848;29;20056;-70
2022/09/15 08:10:56;;;;;;;6.45;5.15;;;;;;;17.89;70.37;98045.66;4896905;29;20052;-70
2022/09/15 08:13:23;;;;;;;5.22;4.72;;;;;;;17.90;70.78;98042.72;4896763;29;20116;-70
2022/09/15 08:15:51;;;;;;;5.47;4.30;;;;;;;17.98;71.03;98046.78;4897018;29;20075;-70
2022/09/15 08:18:17;;;;;;;6.40;5.15;;;;;;;18.05;70.09;98058.06;4881091;29;20048;-70
2022/09/15 08:20:44;;;;;;;4.55;3.60;;;;;;;17.96;70.13;98055.06;4896821;29;20060;-70
2022/09/15 08:23:10;;;;;;;4.60;4.07;;;;;;;17.97;70.00;98058.56;4881119;29;20104;-70
2022/09/15 08:25:38;;;;;;;4.97;4.47;;;;;;;18.01;69.98;98062.31;4897928;29;20041;-70
2022/09/15 08:28:05;;;;;;;4.57;4.15;;;;;;;18.02;69.44;98067.41;4881314;29;20048;-70
2022/09/15 08:30:31;;;;;;;4.13;3.72;;;;;;;18.00;69.41;98066.88;4896792;29;20056;-70
2022/09/15 08:32:58;;;;;;;4.18;3.63;;;;;;;18.02;69.53;98067.41;4878548;29;20052;-70
2022/09/15 08:35:24;;;;;;;3.75;3.10;;;;;;;18.05;69.54;98077.59;4891215;29;20493;-70
2022/09/15 08:37:54;;;;;;;3.17;2.80;;;;;;;18.09;69.58;98079.75;4896296;29;20083;-70
2022/09/15 08:40:31;;;;;;;3.63;2.95;;;;;;;18.12;69.95;98087.22;4896697;29;20045;-70
2022/09/15 08:43:05;;;;;;;2.08;1.90;;;;;;;18.20;70.10;98092.09;4896794;29;20048;-70
2022/09/15 08:45:42;;;;;;;2.67;2.33;;;;;;;18.27;69.89;98108.72;4896658;29;20053;-70
2022/09/15 08:48:14;;;;;;;2.78;2.30;;;;;;;18.28;69.62;98095.09;4896183;29;20044;-69
2022/09/15 08:50:46;;;;;;;2.63;2.42;;;;;;;18.29;69.54;98104.75;4896322;29;20057;-69
2022/09/15 08:53:18;;;;;;;2.80;2.40;;;;;;;18.30;69.68;98084.13;4897192;29;20060;-69
2022/09/15 08:55:51;;;;;;;2.50;2.28;;;;;;;18.33;69.85;98086.31;4896967;29;20041;-69
2022/09/15 08:58:24;;;;;;;2.67;2.33;;;;;;;18.38;69.82;98091.66;4897171;29;20100;-69
2022/09/15 09:01:15;;;;;;;3.65;3.35;;;;;;;18.41;69.33;98103.72;4897733;29;20102;-70
2022/09/15 09:03:57;;;;;;;3.33;2.90;;;;;;;18.41;69.36;98103.72;4889096;29;20049;-70
2022/09/15 09:06:48;;;;;;;2.58;2.38;;;;;;;18.40;69.63;98110.13;4860436;29;20041;-69
2022/09/15 09:09:38;;;;;;;2.47;2.00;;;;;;;18.45;69.39;98108.31;4859546;29;20181;-69
2022/09/15 09:12:31;;;;;;;4.72;4.22;;;;;;;18.44;69.00;98117.38;4858913;29;20060;-70
2022/09/15 09:15:24;;;;;;;3.67;3.38;;;;;;;18.45;69.47;98107.47;4871354;29;20049;-70
2022/09/15 09:18:29;;;;;;;2.97;2.70;;;;;;;18.52;69.40;98119.56;4859149;29;20062;-69
2022/09/15 09:21:14;;;;;;;3.47;2.90;;;;;;;18.60;68.68;98114.78;4873529;29;20057;-69
2022/09/15 09:23:53;;;;;;;3.30;3.00;;;;;;;18.65;68.75;98112.13;4859395;29;20057;-69
2022/09/15 09:26:20;;;;;;;3.50;3.20;;;;;;;18.67;68.59;98118.84;4859172;29;20053;-69
2022/09/15 09:28:53;;;;;;;4.05;3.60;;;;;;;18.70;68.62;98121.03;4860240;29;20053;-69
2022/09/15 09:31:22;;;;;;;4.25;3.85;;;;;;;18.73;68.50;98125.03;4860415;29;20042;-69
2022/09/15 09:34:05;;;;;;;4.20;3.80;;;;;;;18.74;68.45;98124.78;4884024;29;20057;-69
2022/09/15 09:36:32;;;;;;;5.40;4.47;;;;;;;18.75;68.15;98125.59;4898421;29;20048;-69
2022/09/15 09:39:00;;;;;;;5.85;4.85;;;;;;;18.74;67.60;98132.03;4898540;29;20112;-69
2022/09/15 09:41:34;;;;;;;4.18;3.40;;;;;;;18.77;68.02;98128.78;4883785;29;20052;-69
2022/09/15 09:44:11;;;;;;;4.43;4.03;;;;;;;18.84;67.89;98128.56;4883671;29;20055;-69
2022/09/15 09:46:38;;;;;;;4.20;3.80;;;;;;;18.90;67.09;98127.50;4897825;29;20059;-69
2022/09/15 09:49:24;;;;;;;4.72;4.25;;;;;;;18.90;67.00;98132.84;4897251;29;20128;-69
2022/09/15 09:51:54;;;;;;;5.40;4.75;;;;;;;18.85;66.81;98133.66;4896475;29;20092;-69
2022/09/15 09:54:27;;;;;;;4.53;4.00;;;;;;;18.79;66.74;98130.16;4895876;29;20061;-70
2022/09/15 09:56:56;;;;;;;4.38;3.97;;;;;;;18.74;66.77;98134.69;4896965;29;20056;-70
2022/09/15 09:59:39;;;;;;;5.18;4.65;;;;;;;18.67;66.75;98134.91;4897222;29;20056;-70
2022/09/15 10:02:19;;;;;;;6.25;4.75;;;;;;;18.62;66.35;98137.56;4895731;29;20096;-70
2022/09/15 10:05:06;;;;;;;5.07;4.28;;;;;;;18.55;66.53;98135.09;4888349;29;20041;-69
2022/09/15 10:07:39;;;;;;;5.15;4.40;;;;;;;18.52;66.46;98132.94;4879762;29;20152;-69
2022/09/15 10:10:17;;;;;;;5.37;4.53;;;;;;;18.42;66.23;98143.59;4895832;29;20056;-69
2022/09/15 10:12:43;;;;;;;4.95;4.45;;;;;;;18.35;66.36;98142.22;4895637;29;20073;-70
2022/09/15 10:15:24;;;;;;;5.40;4.57;;;;;;;18.32;66.68;98143.53;4896539;29;20044;-69
2022/09/15 10:17:51;;;;;;;4.78;4.22;;;;;;;18.35;66.75;98139.53;4895545;29;20055;-69
2022/09/15 10:20:27;;;;;;;3.95;3.55;;;;;;;18.44;66.86;98140.66;4897015;29;20080;-69
2022/09/15 10:23:24;;;;;;;4.43;4.00;;;;;;;18.61;66.69;98149.31;4904248;29;20067;-71
2022/09/15 10:25:54;;;;;;;5.00;4.50;;;;;;;18.73;66.44;98143.78;4903258;29;20096;-69
2022/09/15 10:28:26;;;;;;;6.22;5.53;;;;;;;18.85;65.65;98139.00;4886771;29;20056;-70
2022/09/15 10:31:12;;;;;;;6.07;5.30;;;;;;;18.93;65.75;98140.38;4885271;29;20057;-68
2022/09/15 10:33:46;;;;;;;10.43;4.43;;;;;;;19.00;65.65;98138.25;4877247;29;20151;-68
2022/09/15 10:36:21;;;;;;;5.90;5.30;;;;;;;19.19;64.51;98141.28;4864073;29;20502;-68
2022/09/15 10:38:59;;;;;;;5.38;4.88;;;;;;;19.40;63.67;98147.47;4863980;29;20082;-70
2022/09/15 10:41:41;;;;;;;4.35;3.95;;;;;;;19.58;63.01;98144.25;4867290;29;20506;-69
2022/09/15 10:44:29;;;;;;;4.90;4.50;;;;;;;19.74;62.22;98142.44;4871663;29;20045;-69
2022/09/15 10:47:18;;;;;;;5.82;4.78;;;;;;;19.87;61.77;98144.56;4873987;29;20056;-69
2022/09/15 10:50:11;;;;;;;4.30;3.90;;;;;;;20.01;61.24;98134.91;4869705;29;20113;-69
2022/09/15 10:53:02;;;;;;;5.38;4.65;;;;;;;20.21;60.61;98149.41;4866833;29;20101;-69
2022/09/15 10:55:48;;;;;;;4.78;4.35;;;;;;;20.36;59.74;98143.97;4863561;29;20069;-70
2022/09/15 10:58:24;;;;;;;4.50;4.10;;;;;;;20.49;58.24;98146.13;4864432;29;20061;-70
2022/09/15 11:01:11;;;;;;;4.80;4.18;;;;;;;20.57;58.04;98146.63;4866753;29;20105;-69
2022/09/15 11:03:59;;;;;;;3.90;3.50;;;;;;;20.62;57.97;98144.75;4894373;29;20128;-70
2022/09/15 11:06:41;;;;;;;4.20;3.67;;;;;;;20.85;57.46;98145.19;4871225;29;20045;-70
2022/09/15 11:09:13;;;;;;;3.92;3.63;;;;;;;21.00;57.31;98140.56;4871210;29;20053;-70
2022/09/15 11:11:49;;;;;;;4.18;3.78;;;;;;;21.02;56.90;98138.41;4869325;29;20050;-70
2022/09/15 11:14:34;;;;;;;4.40;4.00;;;;;;;21.10;56.69;98137.00;4868935;29;20057;-70
2022/09/15 11:17:32;;;;;;;4.65;3.78;;;;;;;21.09;56.56;98138.09;4869700;29;20294;-70
2022/09/15 11:20:24;;;;;;;3.85;3.55;;;;;;;21.11;56.35;98132.47;4865198;29;20053;-70
2022/09/15 11:23:24;;;;;;;4.40;3.33;;;;;;;21.20;56.13;98141.53;4864328;29;20078;-70
2022/09/15 11:26:14;;;;;;;3.50;3.20;;;;;;;21.39;56.02;98137.16;4864591;29;20545;-72
2022/09/15 11:29:13;;;;;;;3.95;3.55;;;;;;;21.48;54.09;98134.69;4863287;29;20058;-71
2022/09/15 11:31:46;;;;;;;3.58;3.28;;;;;;;21.56;53.99;98133.28;4842994;29;20093;-71
2022/09/15 11:34:28;;;;;;;4.07;3.33;;;;;;;21.50;54.00;98135.97;4883313;29;20104;-71
2022/09/15 11:37:16;;;;;;;3.53;3.22;;;;;;;21.44;53.67;98136.31;4883751;29;20045;-71
2022/09/15 11:39:52;;;;;;;3.50;3.20;;;;;;;21.32;53.74;98138.50;4867475;29;20044;-71
2022/09/15 11:42:24;;;;;;;3.40;3.10;;;;;;;21.18;53.84;98144.50;4890889;29;20107;-70
2022/09/15 11:44:52;;;;;;;3.35;3.05;;;;;;;21.02;54.10;98138.41;4886770;29;20049;-71
2022/09/15 11:47:41;;;;;;;2.30;2.10;;;;;;;21.11;54.33;98133.25;4883275;29;20136;-71
2022/09/15 11:50:19;;;;;;;3.42;3.10;;;;;;;21.22;54.03;98136.69;4886556;29;20073;-71
2022/09/15 11:52:56;;;;;;;3.88;3.22;;;;;;;21.42;53.28;98131.19;4870011;29;20105;-71
2022/09/15 11:55:32;;;;;;;2.90;2.70;;;;;;;21.61;53.26;98128.66;4872073;29;20057;-72
2022/09/15 11:58:08;;;;;;;3.05;2.78;;;;;;;21.93;52.72;98135.41;4883270;29;20073;-70
2022/09/15 12:00:42;;;;;;;2.80;2.35;;;;;;;22.14;51.73;98141.44;4865748;29;20057;-69
2022/09/15 12:03:30;;;;;;;3.72;2.72;;;;;;;22.33;51.10;98134.25;4888450;29;20056;-70